createdAt,value
2023-11-08T00:01:11.425Z,19.63
2023-11-08T00:03:39.420Z,19.50
2023-11-08T00:06:06.772Z,21.75
2023-11-08T00:08:33.936Z,19.52
2023-11-08T00:11:01.124Z,22.92
2023-11-08T00:13:28.233Z,27.63
2023-11-08T00:15:55.281Z,24.95
2023-11-08T00:18:23.865Z,22.65
2023-11-08T00:20:50.992Z,27.27
2023-11-08T00:23:18.042Z,19.40
2023-11-08T00:25:45.107Z,26.50
2023-11-08T00:28:12.150Z,25.67
2023-11-08T00:30:40.362Z,33.75
2023-11-08T00:33:07.477Z,40.50
2023-11-08T00:35:34.725Z,36.97
2023-11-08T00:38:02.123Z,27.13
2023-11-08T00:40:29.327Z,26.55
2023-11-08T00:42:56.592Z,33.75
2023-11-08T00:45:25.377Z,31.92
2023-11-08T00:47:53.745Z,31.33
2023-11-08T00:50:21.232Z,28.65
2023-11-08T00:52:51.934Z,35.17
2023-11-08T00:55:18.926Z,30.77
2023-11-08T00:57:45.955Z,27.27
2023-11-08T01:00:13.740Z,27.92
2023-11-08T01:02:43.048Z,25.08
2023-11-08T01:05:12.681Z,32.03
2023-11-08T01:07:39.840Z,23.60
2023-11-08T01:10:07.511Z,19.63
2023-11-08T01:12:35.272Z,34.35
2023-11-08T01:15:02.687Z,36.80
2023-11-08T01:17:30.823Z,42.95
2023-11-08T01:19:58.076Z,32.67
2023-11-08T01:22:25.116Z,24.77
2023-11-08T01:24:52.365Z,29.80
2023-11-08T01:27:19.490Z,26.65
2023-11-08T01:29:46.485Z,27.48
2023-11-08T01:32:13.564Z,34.97
2023-11-08T01:34:40.658Z,30.73
2023-11-08T01:37:07.728Z,28.65
2023-11-08T01:39:34.842Z,36.80
2023-11-08T01:42:02.013Z,39.53
2023-11-08T01:44:29.097Z,30.25
2023-11-08T01:46:56.892Z,26.25
2023-11-08T01:49:25.172Z,21.38
2023-11-08T01:51:53.329Z,20.38
2023-11-08T01:54:21.427Z,19.48
2023-11-08T01:56:49.052Z,17.23
2023-11-08T01:59:19.574Z,28.17
2023-11-08T02:01:47.238Z,27.30
2023-11-08T02:04:15.305Z,28.33
2023-11-08T02:06:44.171Z,24.27
2023-11-08T02:09:12.817Z,19.73
2023-11-08T02:11:39.990Z,19.20
2023-11-08T02:14:07.424Z,31.67
2023-11-08T02:16:34.462Z,25.50
2023-11-08T02:19:01.656Z,29.73
2023-11-08T02:21:29.480Z,30.70
2023-11-08T02:23:56.740Z,43.70
2023-11-08T02:26:23.821Z,23.35
2023-11-08T02:28:50.880Z,38.47
2023-11-08T02:31:18.520Z,37.40
2023-11-08T02:33:45.739Z,25.73
2023-11-08T02:36:15.540Z,36.17
2023-11-08T02:38:42.650Z,28.40
2023-11-08T02:41:10.058Z,29.35
2023-11-08T02:43:37.709Z,29.40
2023-11-08T02:46:05.687Z,23.52
2023-11-08T02:48:33.711Z,20.70
2023-11-08T02:51:01.134Z,20.80
2023-11-08T02:53:28.573Z,23.45
2023-11-08T02:55:55.653Z,24.27
2023-11-08T02:58:24.452Z,23.42
2023-11-08T03:00:55.963Z,28.67
2023-11-08T03:03:23.184Z,24.88
2023-11-08T03:05:50.272Z,23.92
2023-11-08T03:08:17.304Z,21.38
2023-11-08T03:10:44.351Z,24.52
2023-11-08T03:13:11.430Z,26.80
2023-11-08T03:15:38.572Z,24.50
2023-11-08T03:18:06.113Z,22.85
2023-11-08T03:20:33.604Z,22.25
2023-11-08T03:23:00.727Z,25.73
2023-11-08T03:25:27.785Z,22.55
2023-11-08T03:27:54.885Z,19.90
2023-11-08T03:30:22.026Z,23.52
2023-11-08T03:32:49.944Z,33.08
2023-11-08T03:35:17.091Z,26.52
2023-11-08T03:37:44.740Z,24.88
2023-11-08T03:40:13.850Z,23.92
2023-11-08T03:42:42.072Z,27.38
2023-11-08T03:45:10.084Z,25.15
2023-11-08T03:47:38.814Z,27.08
2023-11-08T03:50:06.785Z,24.05
2023-11-08T03:52:34.311Z,29.45
2023-11-08T03:55:01.524Z,28.45
2023-11-08T03:57:29.584Z,34.67
2023-11-08T03:59:56.897Z,24.40
2023-11-08T04:02:24.845Z,30.58
2023-11-08T04:04:52.445Z,23.80
2023-11-08T04:07:19.744Z,23.42
2023-11-08T04:09:47.324Z,25.50
2023-11-08T04:12:14.931Z,27.80
2023-11-08T04:14:42.429Z,30.85
2023-11-08T04:17:13.400Z,37.05
2023-11-08T04:19:40.444Z,29.70
2023-11-08T04:22:07.962Z,29.92
2023-11-08T04:24:35.520Z,29.48
2023-11-08T04:27:04.437Z,29.35
2023-11-08T04:29:35.308Z,24.98
2023-11-08T04:32:02.393Z,23.38
2023-11-08T04:34:30.046Z,22.52
2023-11-08T04:36:57.169Z,19.58
2023-11-08T04:39:24.846Z,23.17
2023-11-08T04:41:53.086Z,23.75
2023-11-08T04:44:20.968Z,22.20
2023-11-08T04:46:48.403Z,23.05
2023-11-08T04:49:16.242Z,23.10
2023-11-08T04:51:44.000Z,24.83
2023-11-08T04:54:11.292Z,28.40
2023-11-08T04:56:38.376Z,22.35
2023-11-08T04:59:10.305Z,28.42
2023-11-08T05:01:38.536Z,25.15
2023-11-08T05:04:05.888Z,22.05
2023-11-08T05:06:33.022Z,21.73
2023-11-08T05:09:00.306Z,19.23
2023-11-08T05:11:31.206Z,25.27
2023-11-08T05:13:58.296Z,21.05
2023-11-08T05:16:25.407Z,23.30
2023-11-08T05:18:52.924Z,26.38
2023-11-08T05:21:24.821Z,23.67
2023-11-08T05:23:51.955Z,25.50
2023-11-08T05:26:20.160Z,24.77
2023-11-08T05:28:47.453Z,19.33
2023-11-08T05:31:15.396Z,21.15
2023-11-08T05:33:42.901Z,23.90
2023-11-08T05:36:10.384Z,21.80
2023-11-08T05:38:41.188Z,22.25
2023-11-08T05:41:08.340Z,25.77
2023-11-08T05:43:35.404Z,23.70
2023-11-08T05:46:02.463Z,20.10
2023-11-08T05:48:29.493Z,22.70
2023-11-08T05:50:56.584Z,18.95
2023-11-08T05:53:24.220Z,17.17
2023-11-08T05:55:51.441Z,20.20
2023-11-08T05:58:18.480Z,17.23
2023-11-08T06:00:45.650Z,20.00
2023-11-08T06:03:12.818Z,18.08
2023-11-08T06:05:41.447Z,19.50
2023-11-08T06:08:08.599Z,19.42
2023-11-08T06:10:35.843Z,9.98
2023-11-08T06:13:06.507Z,12.73
2023-11-08T06:15:33.638Z,10.07
2023-11-08T06:18:01.854Z,8.73
2023-11-08T06:20:29.174Z,8.32
2023-11-08T06:22:56.197Z,10.20
2023-11-08T06:25:23.972Z,8.63
2023-11-08T06:27:51.068Z,8.77
2023-11-08T06:30:18.387Z,8.63
2023-11-08T06:32:45.666Z,8.48
2023-11-08T06:35:13.067Z,7.38
2023-11-08T06:37:41.192Z,7.75
2023-11-08T06:40:10.618Z,7.03
2023-11-08T06:42:40.918Z,6.70
2023-11-08T06:45:09.139Z,7.22
2023-11-08T06:47:36.470Z,7.70
2023-11-08T06:50:03.986Z,7.55
2023-11-08T06:52:31.039Z,7.75
2023-11-08T06:54:58.183Z,8.35
2023-11-08T06:57:25.371Z,6.72
2023-11-08T06:59:52.449Z,5.50
2023-11-08T07:02:21.720Z,5.72
2023-11-08T07:04:48.917Z,6.63
2023-11-08T07:07:16.097Z,5.40
2023-11-08T07:09:43.346Z,5.85
2023-11-08T07:12:10.366Z,5.65
2023-11-08T07:14:38.004Z,5.50
2023-11-08T07:17:06.695Z,6.07
2023-11-08T07:19:34.181Z,6.22
2023-11-08T07:22:01.333Z,6.18
2023-11-08T07:24:28.418Z,5.63
2023-11-08T07:26:55.802Z,6.10
2023-11-08T07:29:23.659Z,6.88
2023-11-08T07:31:53.679Z,5.30
2023-11-08T07:34:23.235Z,5.75
2023-11-08T07:36:52.565Z,5.50
2023-11-08T07:39:27.041Z,5.22
2023-11-08T07:41:55.343Z,5.47
2023-11-08T07:44:22.730Z,4.97
2023-11-08T07:46:49.867Z,4.45
2023-11-08T07:49:17.551Z,5.07
2023-11-08T07:51:45.233Z,5.38
2023-11-08T07:54:12.613Z,5.63
2023-11-08T07:56:39.863Z,7.57
2023-11-08T07:59:07.273Z,5.43
2023-11-08T08:01:34.304Z,5.07
2023-11-08T08:04:01.649Z,4.80
2023-11-08T08:06:29.009Z,4.88
2023-11-08T08:08:58.497Z,5.15
2023-11-08T08:11:25.922Z,4.75
2023-11-08T08:13:53.714Z,5.00
2023-11-08T08:16:23.738Z,4.65
2023-11-08T08:18:50.961Z,4.45
2023-11-08T08:21:18.450Z,5.15
2023-11-08T08:23:51.585Z,4.88
2023-11-08T08:26:25.580Z,4.93
2023-11-08T08:28:52.672Z,5.15
2023-11-08T08:31:20.340Z,4.63
2023-11-08T08:33:47.590Z,5.43
2023-11-08T08:36:14.654Z,5.80
2023-11-08T08:38:41.929Z,6.32
2023-11-08T08:41:08.960Z,7.47
2023-11-08T08:43:36.422Z,5.93
2023-11-08T08:46:03.540Z,7.22
2023-11-08T08:48:30.639Z,7.32
2023-11-08T08:50:58.983Z,7.05
2023-11-08T08:53:26.277Z,8.05
2023-11-08T08:55:53.308Z,7.43
2023-11-08T08:58:20.302Z,9.02
2023-11-08T09:00:47.353Z,7.32
2023-11-08T09:03:17.379Z,8.18
2023-11-08T09:05:44.673Z,7.13
2023-11-08T09:08:11.898Z,5.97
2023-11-08T09:10:39.057Z,6.47
2023-11-08T09:13:06.721Z,6.30
2023-11-08T09:15:33.986Z,5.38
2023-11-08T09:21:27.293Z,5.43
2023-11-08T09:23:54.373Z,6.97
2023-11-08T09:26:21.410Z,5.82
2023-11-08T09:28:48.426Z,6.00
2023-11-08T09:31:17.889Z,6.13
2023-11-08T09:33:44.988Z,5.25
2023-11-08T09:36:13.379Z,7.28
2023-11-08T09:38:40.427Z,11.07
2023-11-08T09:41:09.312Z,11.80
2023-11-08T09:43:38.901Z,12.05
2023-11-08T10:19:32.130Z,4.38
2023-11-08T10:21:02.515Z,4.32
2023-11-08T10:23:32.206Z,3.60
2023-11-08T10:26:19.677Z,3.88
2023-11-08T10:28:56.287Z,4.35
2023-11-08T10:31:31.168Z,3.40
2023-11-08T10:33:58.811Z,3.67
2023-11-08T10:36:27.548Z,5.00
2023-11-08T10:38:54.836Z,4.10
2023-11-08T10:41:22.216Z,3.58
2023-11-08T10:43:49.916Z,2.92
2023-11-08T10:46:17.308Z,3.60
2023-11-08T10:48:46.129Z,2.88
2023-11-08T10:51:13.843Z,2.80
2023-11-08T10:53:41.114Z,2.45
2023-11-08T10:56:10.143Z,2.97
2023-11-08T10:58:45.014Z,3.70
2023-11-08T11:01:16.322Z,2.70
2023-11-08T11:03:44.296Z,3.33
2023-11-08T11:06:12.670Z,2.20
2023-11-08T11:08:44.659Z,2.42
2023-11-08T11:11:12.421Z,2.92
2023-11-08T11:13:50.041Z,2.33
2023-11-08T11:16:33.696Z,2.65
2023-11-08T11:19:17.145Z,2.28
2023-11-08T11:21:46.667Z,3.30
2023-11-08T11:24:39.250Z,3.80
2023-11-08T11:27:07.438Z,2.50
2023-11-08T11:29:35.618Z,2.63
2023-11-08T11:32:08.337Z,2.50
2023-11-08T11:34:35.453Z,2.40
2023-11-08T11:37:08.273Z,3.05
2023-11-08T11:39:36.253Z,2.78
2023-11-08T11:42:08.446Z,2.67
2023-11-08T11:44:40.996Z,3.95
2023-11-08T11:47:13.176Z,2.35
2023-11-08T11:49:49.265Z,2.50
2023-11-08T11:52:18.684Z,1.90
2023-11-08T11:54:53.279Z,2.83
2023-11-08T11:57:22.264Z,3.00
2023-11-08T11:59:51.089Z,3.63
2023-11-08T12:02:19.392Z,3.30
2023-11-08T12:04:52.314Z,4.38
2023-11-08T12:07:20.390Z,1.95
2023-11-08T12:09:50.080Z,2.30
2023-11-08T12:12:36.758Z,2.00
2023-11-08T12:17:40.689Z,1.45
2023-11-08T12:20:08.659Z,1.35
2023-11-08T12:22:38.956Z,1.65
2023-11-08T12:25:07.096Z,2.53
2023-11-08T12:27:34.235Z,2.05
2023-11-08T12:30:01.846Z,1.85
2023-11-08T12:32:28.939Z,1.70
2023-11-08T12:34:56.110Z,2.00
2023-11-08T12:37:23.675Z,2.00
2023-11-08T12:39:51.594Z,1.90
2023-11-08T12:42:18.674Z,2.28
2023-11-08T12:44:52.089Z,1.83
2023-11-08T12:47:19.342Z,1.77
2023-11-08T12:49:46.627Z,2.70
2023-11-08T12:52:14.111Z,1.90
2023-11-08T12:54:41.597Z,1.40
2023-11-08T12:57:08.794Z,1.58
2023-11-08T12:59:45.131Z,2.05
2023-11-08T13:02:21.449Z,1.50
2023-11-08T13:04:49.819Z,1.98
2023-11-08T13:07:17.200Z,1.08
2023-11-08T13:09:44.387Z,1.20
2023-11-08T13:12:14.865Z,1.33
2023-11-08T13:14:42.325Z,0.85
2023-11-08T13:17:12.903Z,1.92
2023-11-08T13:19:40.559Z,1.58
2023-11-08T13:22:07.710Z,0.80
2023-11-08T13:24:36.541Z,0.60
2023-11-08T13:27:06.588Z,0.85
2023-11-08T13:29:35.377Z,0.85
2023-11-08T13:32:04.764Z,0.80
2023-11-08T13:34:32.183Z,1.15
2023-11-08T13:37:00.434Z,1.08
2023-11-08T13:39:27.477Z,1.60
2023-11-08T13:41:54.581Z,1.20
2023-11-08T13:44:21.678Z,0.85
2023-11-08T13:46:48.740Z,1.40
2023-11-08T13:49:15.868Z,1.45
2023-11-08T13:51:43.073Z,1.20
2023-11-08T13:54:10.063Z,1.50
2023-11-08T13:56:38.696Z,1.30
2023-11-08T13:59:06.275Z,1.10
2023-11-08T14:01:33.366Z,1.00
2023-11-08T14:04:00.994Z,1.15
2023-11-08T14:06:28.041Z,1.30
2023-11-08T14:08:55.109Z,1.35
2023-11-08T14:11:22.311Z,0.90
2023-11-08T14:13:49.917Z,1.10
2023-11-08T14:16:17.037Z,1.35
2023-11-08T14:18:45.573Z,2.55
2023-11-08T14:21:12.847Z,1.52
2023-11-08T14:23:39.914Z,3.15
2023-11-08T14:26:08.288Z,1.70
2023-11-08T14:28:35.375Z,1.55
2023-11-08T14:31:02.835Z,2.05
2023-11-08T14:33:30.153Z,2.03
2023-11-08T14:35:59.469Z,2.00
2023-11-08T14:38:26.766Z,2.10
2023-11-08T14:40:53.835Z,2.53
2023-11-08T14:43:23.416Z,1.67
2023-11-08T14:45:51.924Z,1.63
2023-11-08T14:48:19.232Z,1.58
2023-11-08T14:50:46.885Z,1.75
2023-11-08T14:53:14.019Z,2.33
2023-11-08T14:55:42.566Z,2.25
2023-11-08T14:58:10.038Z,2.28
2023-11-08T15:00:37.190Z,1.90
2023-11-08T15:03:05.879Z,2.25
2023-11-08T15:05:35.068Z,2.30
2023-11-08T15:09:48.507Z,2.80
2023-11-08T15:10:54.782Z,2.08
2023-11-08T15:13:22.275Z,2.40
2023-11-08T15:15:49.561Z,2.67
2023-11-08T15:18:17.979Z,2.70
2023-11-08T15:20:45.132Z,1.85
2023-11-08T15:23:12.211Z,1.98
2023-11-08T15:25:41.056Z,2.35
2023-11-08T15:28:10.490Z,2.60
2023-11-08T15:30:37.592Z,2.40
2023-11-08T15:33:05.977Z,2.60
2023-11-08T15:35:33.445Z,3.08
2023-11-08T15:38:00.498Z,3.83
2023-11-08T15:40:27.593Z,2.22
2023-11-08T15:42:54.885Z,2.38
2023-11-08T15:45:21.993Z,2.42
2023-11-08T15:47:49.080Z,2.50
2023-11-08T15:50:16.112Z,2.40
2023-11-08T15:52:43.324Z,1.92
2023-11-08T15:55:10.600Z,1.83
2023-11-08T15:57:37.717Z,2.85
2023-11-08T16:00:08.509Z,2.55
2023-11-08T16:02:35.612Z,3.72
2023-11-08T16:05:04.877Z,2.00
2023-11-08T16:07:31.982Z,2.92
2023-11-08T16:09:59.524Z,3.60
2023-11-08T16:12:26.609Z,2.92
2023-11-08T16:14:53.782Z,3.58
2023-11-08T16:17:21.076Z,3.10
2023-11-08T16:19:49.129Z,3.33
2023-11-08T16:22:16.323Z,3.67
2023-11-08T16:24:43.853Z,3.53
2023-11-08T16:27:11.306Z,3.60
2023-11-08T16:29:51.548Z,3.97
2023-11-08T16:32:35.587Z,3.45
2023-11-08T16:37:39.958Z,2.67
2023-11-08T16:40:11.863Z,3.45
2023-11-08T16:42:39.701Z,3.22
2023-11-08T16:45:08.473Z,2.70
2023-11-08T16:47:35.922Z,2.85
2023-11-08T16:50:03.031Z,2.90
2023-11-08T16:52:30.096Z,2.80
2023-11-08T16:54:57.851Z,2.78
2023-11-08T16:57:25.009Z,4.18
2023-11-08T16:59:52.038Z,2.40
2023-11-08T17:02:19.198Z,2.28
2023-11-08T17:04:47.807Z,2.05
2023-11-08T17:07:14.971Z,2.67
2023-11-08T17:09:42.075Z,2.40
2023-11-08T17:12:09.289Z,2.10
2023-11-08T17:14:36.955Z,1.58
2023-11-08T17:17:04.365Z,2.30
2023-11-08T17:19:31.490Z,1.67
2023-11-08T17:21:58.948Z,1.55
2023-11-08T17:24:27.695Z,1.80
2023-11-08T17:26:56.519Z,1.70
2023-11-08T17:29:23.523Z,2.10
2023-11-08T17:31:52.452Z,1.15
2023-11-08T17:34:19.890Z,1.77
2023-11-08T17:36:48.932Z,1.77
2023-11-08T17:39:15.998Z,1.40
2023-11-08T17:41:43.013Z,1.60
2023-11-08T17:44:10.045Z,1.33
2023-11-08T17:46:37.045Z,1.20
2023-11-08T17:49:05.177Z,1.40
2023-11-08T17:51:32.369Z,1.52
2023-11-08T17:54:00.866Z,1.40
2023-11-08T17:56:28.069Z,1.48
2023-11-08T17:58:55.072Z,1.60
2023-11-08T18:01:23.481Z,1.60
2023-11-08T18:03:50.812Z,1.60
2023-11-08T18:06:18.486Z,1.30
2023-11-08T18:08:46.485Z,1.70
2023-11-08T18:11:15.396Z,1.58
2023-11-08T18:13:47.199Z,1.63
2023-11-08T18:16:14.358Z,1.80
2023-11-08T18:18:42.450Z,1.80
2023-11-08T18:21:09.617Z,1.63
2023-11-08T18:23:37.028Z,1.70
2023-11-08T18:26:05.023Z,1.63
2023-11-08T18:28:32.069Z,1.77
2023-11-08T18:30:59.289Z,1.67
2023-11-08T18:33:27.593Z,1.75
2023-11-08T18:35:54.966Z,1.75
2023-11-08T18:38:23.076Z,1.50
2023-11-08T18:40:51.779Z,1.90
2023-11-08T18:43:18.830Z,1.77
2023-11-08T18:45:45.946Z,1.83
2023-11-08T18:48:13.299Z,1.90
2023-11-08T18:50:41.997Z,1.15
2023-11-08T18:53:09.940Z,1.80
2023-11-08T18:55:37.061Z,1.92
2023-11-08T18:58:04.079Z,1.70
2023-11-08T19:00:31.311Z,1.80
2023-11-08T19:02:58.407Z,1.98
2023-11-08T19:05:25.470Z,2.30
2023-11-08T19:07:52.603Z,2.10
2023-11-08T19:10:19.733Z,2.50
2023-11-08T19:12:47.288Z,2.08
2023-11-08T19:15:15.311Z,2.42
2023-11-08T19:17:43.058Z,2.22
2023-11-08T19:20:11.454Z,2.20
2023-11-08T19:22:38.921Z,2.35
2023-11-08T19:25:06.954Z,2.47
2023-11-08T19:27:41.033Z,2.22
2023-11-08T19:30:11.335Z,2.63
2023-11-08T19:32:38.485Z,2.17
2023-11-08T19:35:06.946Z,1.60
2023-11-08T19:37:34.027Z,2.33
2023-11-08T19:40:01.119Z,2.80
2023-11-08T19:42:28.683Z,2.22
2023-11-08T19:44:56.514Z,2.15
2023-11-08T19:47:23.740Z,3.10
2023-11-08T19:49:53.871Z,2.25
2023-11-08T19:52:22.798Z,2.70
2023-11-08T19:54:50.495Z,2.70
2023-11-08T19:57:17.659Z,2.50
2023-11-08T19:59:45.310Z,2.85
2023-11-08T20:02:13.492Z,3.03
2023-11-08T20:04:40.636Z,2.92
2023-11-08T20:07:08.145Z,2.80
2023-11-08T20:09:35.784Z,3.55
2023-11-08T20:12:03.329Z,3.42
2023-11-08T20:14:30.578Z,3.85
2023-11-08T20:16:58.801Z,3.60
2023-11-08T20:19:26.208Z,3.40
2023-11-08T20:21:53.389Z,3.00
2023-11-08T20:24:21.473Z,3.20
2023-11-08T20:26:49.440Z,3.95
2023-11-08T20:29:17.079Z,3.15
2023-11-08T20:31:46.050Z,2.75
2023-11-08T20:34:13.466Z,3.17
2023-11-08T20:36:40.618Z,3.17
2023-11-08T20:39:08.179Z,3.10
2023-11-08T20:41:35.240Z,2.97
2023-11-08T20:44:02.459Z,2.65
2023-11-08T20:46:29.505Z,2.33
2023-11-08T20:48:56.679Z,2.47
2023-11-08T20:51:25.225Z,2.92
2023-11-08T20:53:52.273Z,2.80
2023-11-08T20:56:19.481Z,2.90
2023-11-08T20:58:46.505Z,2.75
2023-11-08T21:01:13.612Z,2.75
2023-11-08T21:03:40.672Z,3.10
2023-11-08T21:06:07.886Z,2.53
2023-11-08T21:08:35.046Z,2.60
2023-11-08T21:11:02.483Z,3.20
2023-11-08T21:13:29.539Z,2.80
2023-11-08T21:15:56.570Z,2.65
2023-11-08T21:18:24.324Z,3.55
2023-11-08T21:20:51.642Z,2.80
2023-11-08T21:23:19.384Z,2.45
2023-11-08T21:25:46.516Z,2.90
2023-11-08T21:28:13.835Z,2.30
2023-11-08T21:30:41.618Z,2.47
2023-11-08T21:33:09.135Z,2.33
2023-11-08T21:35:36.378Z,2.35
2023-11-08T21:38:03.638Z,2.58
2023-11-08T21:40:30.743Z,3.35
2023-11-08T21:42:58.866Z,2.40
2023-11-08T21:45:25.962Z,3.10
2023-11-08T21:47:53.015Z,2.05
2023-11-08T21:50:20.041Z,2.58
2023-11-08T21:52:47.418Z,2.47
2023-11-08T21:55:15.291Z,3.08
2023-11-08T21:57:43.422Z,2.38
2023-11-08T22:00:11.440Z,2.58
2023-11-08T22:02:39.314Z,2.05
2023-11-08T22:05:07.581Z,2.38
2023-11-08T22:07:34.975Z,2.55
2023-11-08T22:10:02.135Z,2.13
2023-11-08T22:12:29.207Z,2.03
2023-11-08T22:14:56.619Z,2.65
2023-11-08T22:17:24.200Z,2.20
2023-11-08T22:19:51.326Z,2.38
2023-11-08T22:22:18.554Z,2.33
2023-11-08T22:24:45.596Z,2.10
2023-11-08T22:27:12.663Z,2.72
2023-11-08T22:29:39.728Z,2.03
2023-11-08T22:32:07.464Z,2.05
2023-11-08T22:34:36.481Z,2.03
2023-11-08T22:37:03.610Z,2.15
2023-11-08T22:39:32.458Z,2.50
2023-11-08T22:41:59.502Z,1.95
2023-11-08T22:44:26.523Z,1.90
2023-11-08T22:46:53.570Z,1.48
2023-11-08T22:49:20.972Z,1.58
2023-11-08T22:51:48.182Z,1.70
2023-11-08T22:54:15.656Z,1.67
2023-11-08T22:56:44.088Z,1.70
2023-11-08T22:59:11.125Z,1.30
2023-11-08T23:01:39.330Z,1.55
2023-11-08T23:04:06.890Z,1.52
2023-11-08T23:06:34.248Z,1.23
2023-11-08T23:09:01.754Z,1.42
2023-11-08T23:11:31.460Z,0.90
2023-11-08T23:13:58.874Z,1.48
2023-11-08T23:16:27.401Z,1.08
2023-11-08T23:18:55.482Z,1.45
2023-11-08T23:21:23.265Z,1.17
2023-11-08T23:23:52.578Z,1.05
2023-11-08T23:26:21.592Z,1.08
2023-11-08T23:28:48.631Z,1.00
2023-11-08T23:31:15.792Z,0.88
2023-11-08T23:33:42.924Z,0.88
2023-11-08T23:36:15.166Z,1.10
2023-11-08T23:38:43.494Z,0.93
2023-11-08T23:41:11.095Z,1.10
2023-11-08T23:43:38.206Z,0.80
2023-11-08T23:46:05.336Z,1.20
2023-11-08T23:48:32.569Z,1.00
2023-11-08T23:50:59.692Z,1.23
2023-11-08T23:53:26.959Z,1.13
2023-11-08T23:55:54.659Z,1.40
2023-11-08T23:58:22.609Z,1.10
